Time;durP1;ratioP1;P1;durP2;ratioP2;P2;SDS_P1;SDS_P2;PMS_P1;PMS_P2;Temp;Humidity;BMP_temperature;BMP_pressure;BME280_temperature;BME280_humidity;BME280_pressure;Samples;Min_cycle;Max_cycle;Signal;HPM_P1;HPM_P2
2021/11/23 00:00:57;;;;;;;22.07;20.10;;;;;;;2.50;100.00;99761.03;2111570;28;20235;-74
2021/11/23 00:01:58;;;;;;;22.60;20.27;;;;;;;2.47;100.00;99758.84;2111307;28;20250;-74
2021/11/23 00:03:00;;;;;;;22.53;20.30;;;;;;;2.48;100.00;99755.19;2102597;28;20278;-75
2021/11/23 00:04:05;;;;;;;23.27;20.80;;;;;;;2.47;100.00;99762.28;2111386;28;20307;-74
2021/11/23 00:05:07;;;;;;;22.77;20.33;;;;;;;2.48;100.00;99760.44;2102938;28;20217;-74
2021/11/23 00:06:09;;;;;;;22.45;20.35;;;;;;;2.47;100.00;99764.13;2102871;28;20221;-74
2021/11/23 00:07:10;;;;;;;22.77;20.65;;;;;;;2.45;100.00;99763.53;2103051;28;20360;-74
2021/11/23 00:08:13;;;;;;;21.67;19.67;;;;;;;2.45;100.00;99750.38;2111635;28;20225;-74
2021/11/23 00:09:14;;;;;;;22.25;20.08;;;;;;;2.44;100.00;99748.78;2112233;28;20220;-74
2021/11/23 00:10:16;;;;;;;21.97;20.07;;;;;;;2.46;100.00;99754.63;2112139;27;20239;-74
2021/11/23 00:11:20;;;;;;;22.75;20.50;;;;;;;2.44;100.00;99748.78;2111719;28;20298;-74
2021/11/23 00:12:24;;;;;;;23.25;20.77;;;;;;;2.42;100.00;99748.19;2111606;28;20255;-74
2021/11/23 00:13:26;;;;;;;21.60;19.50;;;;;;;2.39;100.00;99746.00;2111876;27;20310;-74
2021/11/23 00:14:27;;;;;;;22.02;19.92;;;;;;;2.38;100.00;99747.03;2112143;28;20232;-74
2021/11/23 00:15:29;;;;;;;22.97;20.17;;;;;;;2.35;100.00;99750.13;2112041;28;20244;-74
2021/11/23 00:16:30;;;;;;;22.45;20.05;;;;;;;2.31;100.00;99748.97;2111600;27;20698;-74
2021/11/23 00:17:31;;;;;;;22.20;19.90;;;;;;;2.26;100.00;99745.19;2111527;28;20228;-74
2021/11/23 00:18:35;;;;;;;22.20;20.10;;;;;;;2.23;100.00;99748.25;2111297;28;20277;-74
2021/11/23 00:19:37;;;;;;;21.33;19.33;;;;;;;2.20;100.00;99748.69;2111081;28;20702;-74
2021/11/23 00:20:40;;;;;;;21.85;19.83;;;;;;;2.21;100.00;99747.66;2112160;28;20220;-74
2021/11/23 00:21:41;;;;;;;22.48;20.08;;;;;;;2.21;100.00;99749.50;2111321;28;20324;-74
2021/11/23 00:22:43;;;;;;;21.75;19.58;;;;;;;2.18;100.00;99744.69;2102921;28;20229;-74
2021/11/23 00:23:45;;;;;;;21.65;19.65;;;;;;;2.14;100.00;99743.53;2111434;28;20224;-74
2021/11/23 00:24:48;;;;;;;22.83;20.65;;;;;;;2.14;100.00;99749.59;2112137;28;20216;-74
2021/11/23 00:25:50;;;;;;;21.58;19.63;;;;;;;2.16;100.00;99746.72;2111616;28;20227;-74
2021/11/23 00:26:51;;;;;;;21.88;19.77;;;;;;;2.20;100.00;99753.16;2111266;28;20242;-74
2021/11/23 00:27:53;;;;;;;22.17;19.97;;;;;;;2.17;100.00;99750.97;2111637;28;20277;-73
2021/11/23 00:28:53;;;;;;;22.35;20.15;;;;;;;2.17;100.00;99757.06;2111953;28;20225;-74
2021/11/23 00:29:55;;;;;;;23.17;20.97;;;;;;;2.12;100.00;99754.28;2111361;28;20228;-74
2021/11/23 00:30:57;;;;;;;22.83;20.70;;;;;;;2.12;100.00;99761.38;2102939;28;20270;-74
2021/11/23 00:31:59;;;;;;;23.65;21.25;;;;;;;2.15;100.00;99756.47;2111356;28;20221;-74
2021/11/23 00:33:03;;;;;;;23.23;20.80;;;;;;;2.14;100.00;99752.22;2111997;28;20223;-74
2021/11/23 00:34:04;;;;;;;23.17;20.88;;;;;;;2.08;100.00;99761.00;2112211;28;20742;-74
2021/11/23 00:35:06;;;;;;;24.40;21.87;;;;;;;2.03;100.00;99762.72;2112117;28;20591;-74
2021/11/23 00:36:07;;;;;;;24.25;21.65;;;;;;;1.95;100.00;99755.94;2110496;28;20220;-74
2021/11/23 00:37:09;;;;;;;24.57;21.90;;;;;;;1.92;100.00;99765.06;2111269;28;20779;-74
2021/11/23 00:38:09;;;;;;;25.65;22.77;;;;;;;1.94;100.00;99759.59;2112117;28;20228;-73
2021/11/23 00:39:16;;;;;;;27.27;22.13;;;;;;;1.90;100.00;99763.66;2111992;28;20228;-74
2021/11/23 00:40:19;;;;;;;26.20;23.42;;;;;;;1.91;100.00;99762.63;2111222;28;20308;-74
2021/11/23 00:41:20;;;;;;;27.20;23.38;;;;;;;1.98;100.00;99756.28;2111397;28;20229;-74
2021/11/23 00:42:22;;;;;;;28.90;23.67;;;;;;;1.98;100.00;99758.09;2111354;28;20223;-74
2021/11/23 00:43:22;;;;;;;28.77;23.88;;;;;;;1.93;100.00;99763.25;2111607;28;20277;-74
2021/11/23 00:44:24;;;;;;;26.83;22.67;;;;;;;1.84;100.00;99768.00;2112146;28;20277;-74
2021/11/23 00:45:25;;;;;;;26.00;22.55;;;;;;;1.79;100.00;99774.94;2112077;28;20228;-74
2021/11/23 00:46:27;;;;;;;26.67;23.33;;;;;;;1.69;100.00;99763.13;2111142;28;20220;-73
2021/11/23 00:47:29;;;;;;;28.35;23.15;;;;;;;1.66;100.00;99774.09;2102902;28;20678;-74
2021/11/23 00:48:31;;;;;;;28.95;23.55;;;;;;;1.60;100.00;99774.16;2111119;28;20576;-74
2021/11/23 00:49:31;;;;;;;31.80;23.17;;;;;;;1.54;100.00;99773.19;2111321;28;20220;-74
2021/11/23 00:50:34;;;;;;;26.93;23.73;;;;;;;1.48;100.00;99770.63;2112023;28;20229;-74
2021/11/23 00:51:35;;;;;;;26.33;23.02;;;;;;;1.43;100.00;99779.19;2111359;28;20236;-74
2021/11/23 00:52:37;;;;;;;28.83;24.43;;;;;;;1.42;100.00;99778.38;2111394;28;20216;-74
2021/11/23 00:53:41;;;;;;;29.55;24.40;;;;;;;1.36;100.00;99781.88;2110753;28;20627;-74
2021/11/23 00:54:43;;;;;;;28.10;23.35;;;;;;;1.35;100.00;99782.09;2111264;28;20227;-74
2021/11/23 00:55:45;;;;;;;30.13;23.25;;;;;;;1.31;100.00;99789.63;2111074;28;20221;-73
2021/11/23 00:56:46;;;;;;;27.15;22.98;;;;;;;1.28;100.00;99786.63;2111193;28;20212;-74
2021/11/23 00:57:48;;;;;;;26.00;23.07;;;;;;;1.27;100.00;99803.41;2110921;28;20240;-74
2021/11/23 00:58:49;;;;;;;31.52;23.85;;;;;;;1.25;100.00;99795.75;2102982;28;20296;-74
2021/11/23 00:59:51;;;;;;;28.57;24.30;;;;;;;1.23;100.00;99795.16;2111231;28;20711;-74
2021/11/23 01:00:52;;;;;;;27.98;23.23;;;;;;;1.22;100.00;99805.91;2110795;28;20221;-74
2021/11/23 01:01:54;;;;;;;25.37;22.77;;;;;;;1.15;100.00;99792.00;2102656;28;20260;-74
2021/11/23 01:02:54;;;;;;;25.27;22.65;;;;;;;1.13;100.00;99795.66;2111244;28;20468;-74
2021/11/23 01:03:56;;;;;;;27.00;21.87;;;;;;;1.16;100.00;99804.13;2111029;28;20237;-74
2021/11/23 01:04:57;;;;;;;26.02;22.58;;;;;;;1.15;100.00;99802.53;2102737;28;20735;-74
2021/11/23 01:05:59;;;;;;;25.07;22.47;;;;;;;1.16;100.00;99806.75;2102833;28;20335;-74
2021/11/23 01:07:01;;;;;;;25.70;22.33;;;;;;;1.12;100.00;99804.53;2111331;28;20217;-74
2021/11/23 01:08:03;;;;;;;25.00;22.30;;;;;;;1.13;100.00;99800.91;2112019;28;20228;-74
2021/11/23 01:09:04;;;;;;;25.00;22.40;;;;;;;1.16;100.00;99804.94;2111279;28;20272;-74
2021/11/23 01:10:09;;;;;;;24.20;21.83;;;;;;;1.19;100.00;99801.88;2111270;28;20277;-74
2021/11/23 01:11:12;;;;;;;23.73;21.33;;;;;;;1.19;100.00;99807.13;2111657;28;20220;-73
2021/11/23 01:12:13;;;;;;;25.65;22.52;;;;;;;1.19;100.00;99803.69;2112122;28;20754;-73
2021/11/23 01:13:15;;;;;;;23.40;21.08;;;;;;;1.25;100.00;99802.84;2111008;28;20634;-74
2021/11/23 01:14:17;;;;;;;24.23;21.65;;;;;;;1.25;100.00;99808.09;2102881;28;20666;-74
2021/11/23 01:15:20;;;;;;;26.92;21.67;;;;;;;1.27;100.00;99806.03;2104316;28;20237;-74
2021/11/23 01:16:21;;;;;;;27.70;21.75;;;;;;;1.29;100.00;99804.00;2112792;28;20782;-74
2021/11/23 01:17:23;;;;;;;24.23;21.27;;;;;;;1.29;100.00;99810.06;2113111;27;20641;-73
2021/11/23 01:18:24;;;;;;;24.55;21.65;;;;;;;1.29;100.00;99806.63;2112962;27;20646;-74
2021/11/23 01:19:26;;;;;;;24.73;21.03;;;;;;;1.33;100.00;99807.81;2112738;28;20221;-73
2021/11/23 01:20:28;;;;;;;25.35;21.67;;;;;;;1.33;100.00;99807.81;2112794;28;20236;-73
2021/11/23 01:21:29;;;;;;;23.63;21.13;;;;;;;1.31;100.00;99802.78;2112600;28;20281;-74
2021/11/23 01:22:33;;;;;;;24.25;21.77;;;;;;;1.39;100.00;99802.50;2112714;28;20217;-74
2021/11/23 01:23:34;;;;;;;23.83;21.63;;;;;;;1.40;100.00;99805.94;2112899;28;20254;-73
2021/11/23 01:24:36;;;;;;;23.88;21.38;;;;;;;1.37;100.00;99806.34;2112791;28;20642;-74
2021/11/23 01:25:38;;;;;;;24.80;21.98;;;;;;;1.39;100.00;99799.03;2112303;28;20702;-74
2021/11/23 01:26:42;;;;;;;25.60;22.40;;;;;;;1.37;100.00;99808.97;2113040;27;20277;-74
2021/11/23 01:27:43;;;;;;;24.25;21.70;;;;;;;1.41;100.00;99813.59;2112777;28;20242;-73
2021/11/23 01:28:46;;;;;;;28.30;23.37;;;;;;;1.37;100.00;99807.16;2113547;27;20744;-74
2021/11/23 01:29:47;;;;;;;25.90;23.08;;;;;;;1.34;100.00;99804.97;2113658;28;20224;-73
2021/11/23 01:30:49;;;;;;;25.60;22.73;;;;;;;1.37;100.00;99807.16;2112682;28;20312;-74
2021/11/23 01:31:50;;;;;;;23.98;21.40;;;;;;;1.38;100.00;99810.56;2112874;28;20265;-73
2021/11/23 01:32:52;;;;;;;28.03;22.37;;;;;;;1.41;100.00;99807.53;2112811;28;20258;-74
2021/11/23 01:33:53;;;;;;;25.00;22.30;;;;;;;1.39;100.00;99806.94;2112279;28;20577;-74
2021/11/23 01:34:56;;;;;;;25.20;21.97;;;;;;;1.35;100.00;99797.88;2112589;28;20648;-74
2021/11/23 01:35:57;;;;;;;25.73;21.48;;;;;;;1.38;100.00;99802.69;2112681;28;20570;-73
2021/11/23 01:36:59;;;;;;;24.37;21.40;;;;;;;1.35;100.00;99803.94;2113297;27;20263;-74
2021/11/23 01:37:59;;;;;;;24.58;21.90;;;;;;;1.35;100.00;99803.13;2112555;28;20569;-74
2021/11/23 01:39:01;;;;;;;25.57;22.87;;;;;;;1.35;100.00;99800.50;2112593;28;20296;-74
2021/11/23 01:40:03;;;;;;;23.92;21.58;;;;;;;1.34;100.00;99796.28;2112245;28;20261;-74
2021/11/23 01:41:07;;;;;;;26.33;22.35;;;;;;;1.32;100.00;99800.94;2112525;28;20739;-74
2021/11/23 01:42:08;;;;;;;30.88;23.50;;;;;;;1.30;100.00;99800.34;2112883;27;20224;-73
2021/11/23 01:43:11;;;;;;;27.55;24.10;;;;;;;1.28;100.00;99807.66;2112439;28;20297;-74
2021/11/23 01:44:12;;;;;;;25.95;23.10;;;;;;;1.24;100.00;99798.59;2112637;28;20231;-73
2021/11/23 01:45:14;;;;;;;29.30;24.33;;;;;;;1.26;100.00;99801.81;2113346;27;20303;-74
2021/11/23 01:46:15;;;;;;;28.70;24.42;;;;;;;1.22;100.00;99796.19;2112516;27;20227;-74
2021/11/23 01:47:16;;;;;;;30.90;25.03;;;;;;;1.21;100.00;99785.88;2112556;28;20231;-74
2021/11/23 01:48:17;;;;;;;29.95;24.70;;;;;;;1.20;100.00;99792.94;2113193;27;20850;-74
2021/11/23 01:49:21;;;;;;;28.63;24.60;;;;;;;1.19;100.00;99791.34;2113259;28;20612;-74
2021/11/23 01:50:23;;;;;;;30.13;24.67;;;;;;;1.18;100.00;99794.19;2112786;27;20706;-74
2021/11/23 01:51:25;;;;;;;31.60;25.13;;;;;;;1.17;100.00;99795.22;2113137;28;20577;-74
2021/11/23 01:52:27;;;;;;;32.53;25.23;;;;;;;1.15;100.00;99792.81;2113173;28;20281;-73
2021/11/23 01:53:29;;;;;;;31.53;25.63;;;;;;;1.15;100.00;99799.91;2113308;28;20224;-74
2021/11/23 01:54:29;;;;;;;33.88;25.98;;;;;;;1.15;100.00;99792.81;2113325;28;20701;-74
2021/11/23 01:55:33;;;;;;;32.57;25.63;;;;;;;1.16;100.00;99797.06;2113037;28;20634;-74
2021/11/23 01:56:36;;;;;;;31.33;25.67;;;;;;;1.17;100.00;99793.41;2113228;27;20224;-74
2021/11/23 01:57:37;;;;;;;31.85;24.92;;;;;;;1.17;100.00;99795.22;2112779;27;20233;-73
2021/11/23 01:58:40;;;;;;;34.45;25.92;;;;;;;1.15;100.00;99805.97;2113209;27;20233;-74
2021/11/23 01:59:41;;;;;;;33.88;25.83;;;;;;;1.15;100.00;99799.91;2113084;27;20277;-74
2021/11/23 02:00:45;;;;;;;35.03;25.63;;;;;;;1.17;100.00;99803.91;2113182;28;20264;-74
2021/11/23 02:01:45;;;;;;;30.65;25.55;;;;;;;1.30;100.00;99808.22;2113328;28;20223;-73
2021/11/23 02:02:47;;;;;;;34.03;25.77;;;;;;;1.27;100.00;99804.22;2113176;28;20685;-74
2021/11/23 02:03:49;;;;;;;36.38;25.80;;;;;;;1.22;100.00;99801.44;2113172;28;20232;-74
2021/11/23 02:04:51;;;;;;;34.35;26.92;;;;;;;1.22;100.00;99795.38;2113310;27;20234;-74
2021/11/23 02:05:54;;;;;;;35.47;25.95;;;;;;;1.19;100.00;99799.22;2112738;27;20232;-73
2021/11/23 02:06:56;;;;;;;34.20;26.03;;;;;;;1.18;100.00;99802.09;2112189;28;20275;-74
2021/11/23 02:07:57;;;;;;;33.17;26.02;;;;;;;1.23;100.00;99799.63;2112486;28;20224;-73
2021/11/23 02:08:59;;;;;;;30.23;25.83;;;;;;;1.24;100.00;99799.41;2113265;27;20221;-74
2021/11/23 02:10:01;;;;;;;34.22;27.25;;;;;;;1.21;100.00;99799.00;2113223;27;20299;-74
2021/11/23 02:11:03;;;;;;;35.15;27.73;;;;;;;1.16;100.00;99799.69;2112498;27;20224;-73
2021/11/23 02:12:06;;;;;;;36.00;27.80;;;;;;;1.19;100.00;99799.22;2104319;28;20318;-74
2021/11/23 02:13:08;;;;;;;35.33;26.48;;;;;;;1.16;100.00;99799.69;2112044;27;20679;-73
2021/11/23 02:14:09;;;;;;;33.25;26.58;;;;;;;1.13;100.00;99800.91;2112543;27;20221;-74
2021/11/23 02:15:12;;;;;;;34.70;26.77;;;;;;;1.10;100.00;99805.78;2103915;28;20236;-73
2021/11/23 02:16:13;;;;;;;34.75;27.17;;;;;;;1.07;100.00;99804.41;2103860;28;20862;-73
2021/11/23 02:17:15;;;;;;;33.58;27.73;;;;;;;1.03;100.00;99805.84;2112372;28;20224;-73
2021/11/23 02:18:18;;;;;;;33.00;27.73;;;;;;;1.03;100.00;99807.66;2113116;28;20217;-73
2021/11/23 02:19:20;;;;;;;38.53;27.85;;;;;;;1.02;100.00;99803.44;2113151;28;20309;-73
2021/11/23 02:20:23;;;;;;;31.10;26.27;;;;;;;0.99;100.00;99804.66;2113039;27;20221;-73
2021/11/23 02:21:25;;;;;;;37.03;27.95;;;;;;;0.97;100.00;99798.84;2111830;28;20672;-73
2021/11/23 02:22:26;;;;;;;36.08;28.13;;;;;;;0.96;100.00;99799.84;2112329;28;20224;-73
2021/11/23 02:23:28;;;;;;;33.13;26.87;;;;;;;0.95;100.00;99798.22;2112312;28;20301;-73
2021/11/23 02:24:30;;;;;;;34.33;27.58;;;;;;;0.95;100.00;99800.84;2112335;28;20247;-73
2021/11/23 02:25:32;;;;;;;37.17;27.55;;;;;;;0.94;100.00;99795.81;2112626;27;20219;-73
2021/11/23 02:26:34;;;;;;;38.35;27.25;;;;;;;0.92;100.00;99793.41;2112203;28;20220;-73
2021/11/23 02:27:35;;;;;;;33.65;26.92;;;;;;;0.91;100.00;99801.50;2104144;28;20221;-73
2021/11/23 02:28:37;;;;;;;39.58;27.38;;;;;;;0.88;100.00;99797.50;2112235;28;20290;-73
2021/11/23 02:29:38;;;;;;;38.30;27.70;;;;;;;0.84;100.00;99786.59;2111713;28;20225;-73
2021/11/23 02:30:42;;;;;;;34.60;27.50;;;;;;;0.81;100.00;99794.91;2103701;28;20287;-73
2021/11/23 02:31:43;;;;;;;36.17;27.50;;;;;;;0.78;100.00;99792.72;2103971;28;20228;-73
2021/11/23 02:32:51;;;;;;;39.70;28.85;;;;;;;0.78;100.00;99791.91;2112163;28;20227;-73
2021/11/23 02:33:52;;;;;;;33.75;27.55;;;;;;;0.76;100.00;99789.47;2112643;27;20718;-73
2021/11/23 02:34:54;;;;;;;34.63;27.93;;;;;;;0.78;100.00;99794.53;2112986;28;20622;-73
2021/11/23 02:36:00;;;;;;;34.28;27.45;;;;;;;0.75;100.00;99792.31;2112900;28;20229;-73
2021/11/23 02:37:02;;;;;;;35.45;26.75;;;;;;;0.78;100.00;99797.16;2113072;28;21720;-73
2021/11/23 02:38:06;;;;;;;35.80;27.98;;;;;;;0.79;100.00;99799.59;2112530;27;20305;-73
2021/11/23 02:39:11;;;;;;;35.67;27.98;;;;;;;0.80;100.00;99800.38;2112036;27;20232;-73
2021/11/23 02:40:14;;;;;;;34.47;26.83;;;;;;;0.82;100.00;99798.34;2120081;27;20216;-73
2021/11/23 02:41:17;;;;;;;41.53;27.80;;;;;;;0.87;100.00;99798.53;2112875;27;20217;-73
2021/11/23 02:42:18;;;;;;;41.63;28.73;;;;;;;0.91;100.00;99791.81;2112896;28;20635;-73
2021/11/23 02:43:21;;;;;;;39.30;27.60;;;;;;;0.91;100.00;99799.69;2112877;27;20224;-73
2021/11/23 02:44:21;;;;;;;41.58;28.48;;;;;;;0.90;100.00;99800.72;2120101;27;20224;-73
2021/11/23 02:45:27;;;;;;;39.70;28.80;;;;;;;0.93;100.00;99802.09;2120580;27;20690;-73
2021/11/23 02:46:32;;;;;;;37.42;28.52;;;;;;;0.94;100.00;99807.13;2112841;27;20220;-73
2021/11/23 02:47:36;;;;;;;37.95;28.65;;;;;;;0.95;100.00;99802.69;2112926;28;20725;-73
2021/11/23 02:48:40;;;;;;;42.10;28.85;;;;;;;0.93;100.00;99808.16;2112184;27;20585;-73
2021/11/23 02:50:00;;;;;;;37.70;27.73;;;;;;;0.96;100.00;99813.00;2112740;27;20735;-73
2021/11/23 07:40:01;;;;;;;30.02;23.52;;;;;;;1.16;100.00;99880.34;2037310;28;20231;-70
2021/11/23 07:41:02;;;;;;;30.08;23.75;;;;;;;1.15;100.00;99884.00;2039055;28;20253;-69
2021/11/23 07:42:05;;;;;;;31.02;24.67;;;;;;;1.17;100.00;99880.13;2037678;29;20238;-71
2021/11/23 07:43:08;;;;;;;27.88;23.77;;;;;;;1.16;100.00;99889.03;2037963;28;20312;-70
2021/11/23 07:44:11;;;;;;;28.80;24.00;;;;;;;1.21;100.00;99885.75;2046127;28;20313;-71
2021/11/23 07:45:12;;;;;;;28.88;23.33;;;;;;;1.23;100.00;99894.25;2045898;28;20248;-71
2021/11/23 07:46:15;;;;;;;28.17;22.73;;;;;;;1.26;100.00;99897.22;2037843;29;20230;-69
2021/11/23 07:47:17;;;;;;;27.10;21.13;;;;;;;1.25;100.00;99897.47;2038306;29;20595;-72
2021/11/23 07:48:20;;;;;;;29.30;21.83;;;;;;;1.28;100.00;99884.69;2038145;29;20247;-71
2021/11/23 07:49:22;;;;;;;25.10;22.40;;;;;;;1.29;100.00;99893.38;2030863;29;20223;-72
2021/11/23 07:50:23;;;;;;;28.23;22.25;;;;;;;1.31;100.00;99891.34;2037938;29;20284;-71
2021/11/23 07:51:25;;;;;;;29.00;22.17;;;;;;;1.33;100.00;99895.38;2037914;29;20297;-72
2021/11/23 07:52:26;;;;;;;25.92;21.98;;;;;;;1.34;100.00;99896.16;2038178;29;20596;-71
2021/11/23 07:53:27;;;;;;;25.40;21.40;;;;;;;1.39;100.00;99904.19;2046078;28;20245;-71
2021/11/23 07:54:29;;;;;;;30.17;21.75;;;;;;;1.42;100.00;99885.38;2038957;28;20231;-71
2021/11/23 07:55:32;;;;;;;25.38;21.27;;;;;;;1.42;100.00;99888.00;2037988;29;20222;-71
2021/11/23 07:56:36;;;;;;;25.88;20.77;;;;;;;1.38;100.00;99889.44;2037941;29;20226;-71
2021/11/23 07:57:37;;;;;;;28.63;21.48;;;;;;;1.41;100.00;99902.97;2037647;29;20234;-74
2021/11/23 07:58:39;;;;;;;26.95;21.17;;;;;;;1.41;100.00;99892.47;2038082;29;20227;-72
2021/11/23 07:59:41;;;;;;;23.80;20.58;;;;;;;1.43;100.00;99897.50;2038999;28;20223;-71
2021/11/23 08:00:43;;;;;;;23.42;20.55;;;;;;;1.49;100.00;99909.00;2038977;28;20245;-72
2021/11/23 08:01:44;;;;;;;21.90;19.23;;;;;;;1.44;100.00;99917.50;2038192;29;20333;-71
2021/11/23 08:02:48;;;;;;;22.73;20.30;;;;;;;1.47;100.00;99903.13;2038291;29;20229;-72
2021/11/23 08:03:51;;;;;;;21.45;19.30;;;;;;;1.47;100.00;99913.66;2037545;29;20226;-71
2021/11/23 08:04:52;;;;;;;23.88;20.10;;;;;;;1.46;100.00;99904.94;2038005;28;20230;-72
2021/11/23 08:05:54;;;;;;;23.80;19.97;;;;;;;1.45;100.00;99900.72;2038991;28;20688;-71
2021/11/23 08:06:55;;;;;;;21.50;19.50;;;;;;;1.46;100.00;99914.66;2045899;28;20238;-71
2021/11/23 08:07:56;;;;;;;20.67;18.77;;;;;;;1.44;100.00;99911.44;2046175;28;20222;-70
2021/11/23 08:08:57;;;;;;;22.13;19.30;;;;;;;1.43;100.00;99910.66;2038103;29;20751;-69
2021/11/23 08:09:59;;;;;;;21.07;18.87;;;;;;;1.44;100.00;99909.63;2030242;29;20596;-71
2021/11/23 08:11:04;;;;;;;21.27;19.17;;;;;;;1.41;100.00;99912.69;2038003;29;20281;-72
2021/11/23 08:12:05;;;;;;;26.67;19.50;;;;;;;1.43;100.00;99921.16;2037637;29;20712;-72
2021/11/23 08:13:07;;;;;;;21.13;19.23;;;;;;;1.40;100.00;99911.09;2037812;29;20242;-72
2021/11/23 08:14:09;;;;;;;21.63;19.45;;;;;;;1.42;100.00;99916.94;2045499;28;20281;-74
2021/11/23 08:15:10;;;;;;;21.85;19.70;;;;;;;1.42;100.00;99909.84;2038677;28;20230;-76
2021/11/23 08:16:12;;;;;;;22.53;20.37;;;;;;;1.46;100.00;99898.88;2037924;29;20231;-75
2021/11/23 08:17:14;;;;;;;23.17;20.70;;;;;;;1.44;100.00;99909.63;2037965;29;20310;-75
2021/11/23 08:18:16;;;;;;;24.20;21.00;;;;;;;1.49;100.00;99916.88;2045706;28;20225;-75
2021/11/23 08:19:17;;;;;;;24.67;21.98;;;;;;;1.54;100.00;99907.31;2037895;29;20226;-74
2021/11/23 08:20:19;;;;;;;24.95;22.40;;;;;;;1.57;100.00;99904.28;2038107;29;20223;-75
2021/11/23 08:21:21;;;;;;;27.17;22.63;;;;;;;1.56;100.00;99914.97;2045794;28;20261;-75
2021/11/23 08:22:22;;;;;;;26.33;22.58;;;;;;;1.51;100.00;99899.06;2037519;29;20226;-75
2021/11/23 08:23:25;;;;;;;29.17;22.63;;;;;;;1.58;100.00;99911.13;2029325;29;20698;-75
2021/11/23 08:24:28;;;;;;;28.88;21.50;;;;;;;1.57;100.00;99906.91;2029866;29;20235;-75
2021/11/23 08:25:31;;;;;;;26.13;22.63;;;;;;;1.57;100.00;99914.78;2030523;29;20648;-74
2021/11/23 08:26:35;;;;;;;27.15;22.45;;;;;;;1.57;100.00;99927.13;2038038;29;20237;-75
2021/11/23 08:27:37;;;;;;;27.83;23.33;;;;;;;1.54;100.00;99909.94;2030150;29;20246;-75
2021/11/23 08:28:38;;;;;;;28.45;23.65;;;;;;;1.53;100.00;99939.09;2037743;29;20231;-74
2021/11/23 08:29:41;;;;;;;25.20;22.02;;;;;;;1.52;100.00;99940.91;2037869;29;20277;-74
2021/11/23 08:30:46;;;;;;;26.33;22.67;;;;;;;1.47;100.00;99927.59;2037935;29;20227;-74
2021/11/23 08:31:49;;;;;;;25.27;22.17;;;;;;;1.38;100.00;99923.63;2038058;29;20555;-73
2021/11/23 08:32:50;;;;;;;24.83;22.25;;;;;;;1.41;100.00;99941.63;2037534;29;20236;-74
2021/11/23 08:33:52;;;;;;;24.98;22.23;;;;;;;1.38;100.00;99936.78;2037462;29;20234;-75
2021/11/23 08:34:53;;;;;;;25.73;22.73;;;;;;;1.37;100.00;99928.06;2037451;29;20713;-74
2021/11/23 08:35:54;;;;;;;27.20;23.27;;;;;;;1.35;100.00;99935.38;2037840;29;20653;-74
2021/11/23 08:36:56;;;;;;;24.55;22.08;;;;;;;1.34;100.00;99941.66;2038563;28;20230;-73
2021/11/23 08:37:57;;;;;;;24.98;21.17;;;;;;;1.37;100.00;99950.94;2037878;29;20355;-75
2021/11/23 08:39:01;;;;;;;24.17;21.80;;;;;;;1.36;100.00;99936.19;2037743;29;20231;-75
2021/11/23 08:40:03;;;;;;;23.40;21.02;;;;;;;1.39;100.00;99933.13;2022434;29;20228;-75
2021/11/23 08:41:07;;;;;;;24.88;21.88;;;;;;;1.42;100.00;99935.34;2030075;29;20230;-74
2021/11/23 08:42:09;;;;;;;29.33;22.90;;;;;;;1.53;100.00;99932.00;2021833;29;20228;-75
2021/11/23 08:43:11;;;;;;;24.10;21.60;;;;;;;1.58;100.00;99941.88;2014442;29;20611;-74
2021/11/23 08:44:13;;;;;;;24.58;22.08;;;;;;;1.59;100.00;99936.41;2022276;29;20228;-74
2021/11/23 08:45:14;;;;;;;24.08;21.45;;;;;;;1.64;100.00;99938.38;2030098;29;20282;-74
2021/11/23 08:46:16;;;;;;;25.15;19.88;;;;;;;1.69;100.00;99941.97;2022041;29;20261;-76
2021/11/23 08:47:18;;;;;;;23.05;20.05;;;;;;;1.74;100.00;99932.63;2029986;29;20246;-75
2021/11/23 08:48:19;;;;;;;23.10;20.63;;;;;;;1.65;100.00;99945.25;2029915;29;20227;-72
2021/11/23 08:49:20;;;;;;;25.27;21.20;;;;;;;1.61;100.00;99947.50;2022910;29;20247;-74
2021/11/23 08:50:23;;;;;;;25.27;20.55;;;;;;;1.63;100.00;99942.03;2022696;29;20283;-77
2021/11/23 08:51:29;;;;;;;24.98;21.10;;;;;;;1.60;100.00;99942.47;2029467;29;20725;-77
2021/11/23 08:52:32;;;;;;;25.15;21.02;;;;;;;1.61;100.00;99939.63;2021933;29;20778;-78
2021/11/23 08:53:35;;;;;;;26.20;20.45;;;;;;;1.66;100.00;99939.00;2022164;29;20347;-77
2021/11/23 08:54:35;;;;;;;22.38;20.00;;;;;;;1.66;100.00;99952.13;2022014;29;20230;-75
2021/11/23 08:55:38;;;;;;;23.37;20.97;;;;;;;1.68;100.00;99936.94;2022184;29;20312;-76
2021/11/23 08:56:44;;;;;;;26.88;21.48;;;;;;;1.75;100.00;99944.78;2021770;29;20581;-75
2021/11/23 08:57:46;;;;;;;24.83;21.95;;;;;;;1.75;100.00;99932.44;2022701;29;20220;-75
2021/11/23 08:58:53;;;;;;;27.80;21.58;;;;;;;1.80;100.00;99945.72;2029664;29;20375;-75
2021/11/23 09:00:10;;;;;;;24.00;21.40;;;;;;;1.77;100.00;99938.28;2022397;29;20262;-75
2021/11/23 09:01:11;;;;;;;25.65;20.90;;;;;;;1.84;100.00;99936.38;2022691;29;20638;-76
2021/11/23 09:02:14;;;;;;;23.58;21.08;;;;;;;1.91;100.00;99939.78;2022841;29;20236;-75
2021/11/23 09:03:17;;;;;;;24.25;20.70;;;;;;;1.92;100.00;99935.31;2022855;29;20740;-74
2021/11/23 09:04:17;;;;;;;23.40;20.98;;;;;;;1.96;100.00;99936.47;2022879;29;20314;-75
2021/11/23 09:05:24;;;;;;;24.03;21.20;;;;;;;1.98;100.00;99945.75;2022831;29;20622;-76
2021/11/23 09:06:27;;;;;;;22.55;20.45;;;;;;;1.98;100.00;99934.41;2022513;29;20231;-77
2021/11/23 09:07:34;;;;;;;22.63;20.13;;;;;;;1.98;100.00;99947.56;2029866;29;20769;-76
2021/11/23 09:08:46;;;;;;;24.23;20.92;;;;;;;1.96;100.00;99952.25;2030192;29;20717;-74
2021/11/23 09:09:52;;;;;;;26.90;21.05;;;;;;;1.83;100.00;99944.50;2021592;29;20671;-76
2021/11/23 09:10:53;;;;;;;22.80;20.42;;;;;;;1.78;100.00;99939.06;2022008;29;20580;-75
2021/11/23 09:12:01;;;;;;;22.92;20.38;;;;;;;1.80;100.00;99939.66;2014761;29;20292;-74
2021/11/23 09:13:04;;;;;;;23.08;20.77;;;;;;;1.79;100.00;99945.94;2022370;29;20244;-74
2021/11/23 09:14:10;;;;;;;23.63;21.05;;;;;;;1.72;100.00;99955.72;2030072;29;20701;-74
2021/11/23 09:15:14;;;;;;;22.00;19.75;;;;;;;1.75;100.00;99955.31;2029126;29;20227;-73
2021/11/23 09:16:18;;;;;;;22.52;20.27;;;;;;;1.78;100.00;99939.06;2022195;29;20703;-74
2021/11/23 09:17:21;;;;;;;23.10;20.60;;;;;;;1.81;100.00;99943.88;2030081;29;20223;-74
2021/11/23 09:18:24;;;;;;;21.08;19.08;;;;;;;1.85;100.00;99938.00;2021613;29;20228;-75
2021/11/23 09:19:28;;;;;;;21.17;19.00;;;;;;;1.80;100.00;99940.47;2021737;29;20231;-75
2021/11/23 09:20:42;;;;;;;21.58;19.58;;;;;;;1.84;100.00;99964.53;2029648;29;20254;-75
2021/11/23 09:21:46;;;;;;;22.02;19.83;;;;;;;1.79;100.00;99945.94;2021513;29;20317;-76
2021/11/23 09:22:51;;;;;;;22.02;19.52;;;;;;;1.84;100.00;99948.75;2022439;29;20228;-72
2021/11/23 09:23:59;;;;;;;21.27;19.02;;;;;;;1.85;100.00;99940.63;2021730;29;20291;-74
2021/11/23 09:25:03;;;;;;;21.25;19.05;;;;;;;1.80;100.00;99948.34;2030082;29;20241;-74
2021/11/23 09:26:05;;;;;;;21.70;19.55;;;;;;;1.78;100.00;99933.81;2021988;29;20239;-75
2021/11/23 09:27:07;;;;;;;21.88;19.13;;;;;;;1.84;100.00;99930.31;2014725;29;20229;-76
2021/11/23 09:28:12;;;;;;;23.98;20.10;;;;;;;1.91;100.00;99929.25;2014436;29;20299;-75
2021/11/23 09:29:17;;;;;;;23.20;19.45;;;;;;;2.00;100.00;99932.41;2022305;29;20231;-75
2021/11/23 09:30:22;;;;;;;21.70;19.00;;;;;;;2.07;100.00;99924.41;2029403;29;20287;-78
2021/11/23 09:31:25;;;;;;;21.15;19.02;;;;;;;2.11;100.00;99923.75;2022035;29;20291;-72
2021/11/23 09:32:28;;;;;;;20.38;18.42;;;;;;;2.12;100.00;99933.25;2021724;29;20240;-75
2021/11/23 09:33:33;;;;;;;20.85;18.88;;;;;;;2.19;100.00;99933.19;2014518;29;20225;-75
2021/11/23 09:34:38;;;;;;;20.30;18.42;;;;;;;2.17;100.00;99943.97;2015063;29;20237;-73
2021/11/23 09:35:41;;;;;;;20.42;18.58;;;;;;;2.16;100.00;99936.25;2014689;29;20256;-73
2021/11/23 09:36:43;;;;;;;20.48;18.48;;;;;;;2.20;100.00;99932.97;2015846;29;20243;-73